createdAt,value
2017-04-30T00:01:45.730Z,18.44
2017-04-30T00:04:14.785Z,19.20
2017-04-30T00:06:43.832Z,19.48
2017-04-30T00:09:13.653Z,19.46
2017-04-30T00:11:43.463Z,19.52
2017-04-30T00:14:13.281Z,20.40
2017-04-30T00:16:43.062Z,20.96
2017-04-30T00:19:12.917Z,18.16
2017-04-30T00:21:42.007Z,19.80
2017-04-30T00:24:11.822Z,18.18
2017-04-30T00:26:41.720Z,19.90
2017-04-30T00:29:10.830Z,19.54
2017-04-30T00:31:40.638Z,19.58
2017-04-30T00:34:10.442Z,18.68
2017-04-30T00:36:39.486Z,19.96
2017-04-30T00:39:08.534Z,19.84
2017-04-30T00:41:38.345Z,17.40
2017-04-30T00:44:08.132Z,18.44
2017-04-30T00:46:37.182Z,17.28
2017-04-30T00:49:06.348Z,16.62
2017-04-30T00:51:35.454Z,17.46
2017-04-30T00:54:05.237Z,16.56
2017-04-30T00:56:34.292Z,17.64
2017-04-30T00:59:03.353Z,17.56
2017-04-30T01:01:33.158Z,17.64
2017-04-30T01:04:02.257Z,18.22
2017-04-30T01:06:32.092Z,17.40
2017-04-30T01:09:01.121Z,17.08
2017-04-30T01:11:30.176Z,17.18
2017-04-30T01:13:59.221Z,16.58
2017-04-30T01:16:28.349Z,18.58
2017-04-30T01:18:58.130Z,17.60
2017-04-30T01:21:27.265Z,17.34
2017-04-30T01:23:57.117Z,14.78
2017-04-30T01:26:26.281Z,15.76
2017-04-30T01:28:56.061Z,16.76
2017-04-30T01:31:25.181Z,15.54
2017-04-30T01:33:55.007Z,17.00
2017-04-30T01:36:24.815Z,15.24
2017-04-30T01:38:54.625Z,15.38
2017-04-30T01:41:24.432Z,14.84
2017-04-30T01:43:54.229Z,14.64
2017-04-30T01:46:23.346Z,15.50
2017-04-30T01:48:53.258Z,16.76
2017-04-30T01:51:22.284Z,16.20
2017-04-30T01:53:51.462Z,15.12
2017-04-30T01:56:21.275Z,14.70
2017-04-30T01:58:51.067Z,14.44
2017-04-30T02:01:20.104Z,15.24
2017-04-30T02:03:49.166Z,14.50
2017-04-30T02:06:18.954Z,13.22
2017-04-30T02:08:48.080Z,13.72
2017-04-30T02:11:17.892Z,14.72
2017-04-30T02:13:47.706Z,13.56
2017-04-30T02:16:17.518Z,14.32
2017-04-30T02:18:47.337Z,13.62
2017-04-30T02:21:17.141Z,14.22
2017-04-30T02:23:46.953Z,13.78
2017-04-30T02:26:16.767Z,15.04
2017-04-30T02:28:46.583Z,14.66
2017-04-30T02:31:16.380Z,15.92
2017-04-30T02:33:45.484Z,17.70
2017-04-30T02:36:15.285Z,12.48
2017-04-30T02:38:44.390Z,13.68
2017-04-30T02:41:14.219Z,12.14
2017-04-30T02:43:44.024Z,16.88
2017-04-30T02:46:13.828Z,14.00
2017-04-30T02:48:42.862Z,12.90
2017-04-30T02:51:12.035Z,17.46
2017-04-30T02:53:41.837Z,13.78
2017-04-30T02:56:11.658Z,14.12
2017-04-30T02:58:41.457Z,14.52
2017-04-30T03:01:11.268Z,14.16
2017-04-30T03:03:41.055Z,15.14
2017-04-30T03:06:10.138Z,15.30
2017-04-30T03:08:39.286Z,15.06
2017-04-30T03:11:09.103Z,14.50
2017-04-30T03:13:39.005Z,15.70
2017-04-30T03:16:08.791Z,14.50
2017-04-30T03:18:37.923Z,16.96
2017-04-30T03:21:07.711Z,15.36
2017-04-30T03:23:36.840Z,13.88
2017-04-30T03:26:06.636Z,14.60
2017-04-30T03:28:36.433Z,18.32
2017-04-30T03:31:05.478Z,14.58
2017-04-30T03:33:34.543Z,17.14
2017-04-30T03:36:04.358Z,16.12
2017-04-30T03:38:46.264Z,14.10
2017-04-30T03:41:27.922Z,16.70
2017-04-30T03:44:09.031Z,18.82
2017-04-30T03:46:50.824Z,18.34
2017-04-30T03:49:32.722Z,16.12
2017-04-30T03:52:14.610Z,20.24
2017-04-30T03:54:56.433Z,18.62
2017-04-30T03:57:37.487Z,16.94
2017-04-30T04:00:19.373Z,18.44
2017-04-30T04:03:01.001Z,18.64
2017-04-30T04:05:42.056Z,16.44
2017-04-30T04:08:23.791Z,20.32
2017-04-30T04:11:04.817Z,19.94
2017-04-30T04:13:45.795Z,18.44
2017-04-30T04:16:27.673Z,21.04
2017-04-30T04:19:09.509Z,20.56
2017-04-30T04:21:50.654Z,19.24
2017-04-30T04:24:32.443Z,18.50
2017-04-30T04:27:14.245Z,17.50
2017-04-30T04:29:56.034Z,16.72
2017-04-30T04:32:37.831Z,17.96
2017-04-30T04:35:19.631Z,14.98
2017-04-30T04:38:01.324Z,13.80
2017-04-30T04:40:42.286Z,14.94
2017-04-30T04:43:24.187Z,15.88
2017-04-30T04:46:06.075Z,14.10
2017-04-30T04:48:47.054Z,17.50
2017-04-30T04:51:28.840Z,14.68
2017-04-30T04:54:10.535Z,12.68
2017-04-30T04:56:52.406Z,13.10
2017-04-30T04:59:33.449Z,13.86
2017-04-30T05:02:14.481Z,12.10
2017-04-30T05:04:56.236Z,13.24
2017-04-30T05:07:37.219Z,12.02
2017-04-30T05:10:18.235Z,12.36
2017-04-30T05:13:00.029Z,11.84
2017-04-30T05:15:41.909Z,11.80
2017-04-30T05:18:22.798Z,13.16
2017-04-30T05:21:04.690Z,11.42
2017-04-30T05:23:46.373Z,15.66
2017-04-30T05:26:28.267Z,11.32
2017-04-30T05:29:09.307Z,10.82
2017-04-30T05:31:50.194Z,12.62
2017-04-30T05:34:31.413Z,10.62
2017-04-30T05:37:13.210Z,10.88
2017-04-30T05:39:55.038Z,10.78
2017-04-30T05:42:36.075Z,12.72
2017-04-30T05:45:17.973Z,10.94
2017-04-30T05:47:59.762Z,10.54
2017-04-30T05:50:41.444Z,10.66
2017-04-30T05:53:23.346Z,9.88
2017-04-30T05:56:05.133Z,10.50
2017-04-30T05:58:47.043Z,10.14
2017-04-30T06:01:28.772Z,11.14
2017-04-30T06:04:09.698Z,9.40
2017-04-30T06:06:51.485Z,9.98
2017-04-30T06:09:32.664Z,9.38
2017-04-30T06:12:13.753Z,9.58
2017-04-30T06:14:55.550Z,10.16
2017-04-30T06:17:37.382Z,10.08
2017-04-30T06:20:18.513Z,9.42
2017-04-30T06:22:59.584Z,9.98
2017-04-30T06:25:40.720Z,10.34
2017-04-30T06:28:21.850Z,9.18
2017-04-30T06:31:03.457Z,8.74
2017-04-30T06:33:45.008Z,8.90
2017-04-30T06:36:25.916Z,9.44
2017-04-30T06:39:07.586Z,8.44
2017-04-30T06:41:48.578Z,7.96
2017-04-30T06:44:30.453Z,7.74
2017-04-30T06:47:11.528Z,8.04
2017-04-30T06:49:52.509Z,7.86
2017-04-30T06:52:34.374Z,7.22
2017-04-30T06:55:15.467Z,7.18
2017-04-30T06:57:56.571Z,6.88
2017-04-30T07:00:38.450Z,7.50
2017-04-30T07:03:19.536Z,7.38
2017-04-30T07:06:00.669Z,7.52
2017-04-30T07:08:41.795Z,8.28
2017-04-30T07:11:23.586Z,7.64
2017-04-30T07:14:05.384Z,7.26
2017-04-30T07:16:47.068Z,7.16
2017-04-30T07:19:28.155Z,6.42
2017-04-30T07:22:09.936Z,6.62
2017-04-30T07:24:50.819Z,7.12
2017-04-30T07:27:31.781Z,6.72
2017-04-30T07:30:12.880Z,6.72
2017-04-30T07:32:54.603Z,7.64
2017-04-30T07:35:35.630Z,6.68
2017-04-30T07:38:17.449Z,6.42
2017-04-30T07:40:58.465Z,7.60
2017-04-30T07:43:27.493Z,6.94
2017-04-30T07:45:56.533Z,6.42
2017-04-30T07:48:25.586Z,7.54
2017-04-30T07:50:55.365Z,6.44
2017-04-30T07:53:24.421Z,6.90
2017-04-30T07:55:53.495Z,6.46
2017-04-30T07:58:23.293Z,6.26
2017-04-30T08:00:52.343Z,20.64
2017-04-30T08:03:21.398Z,5.78
2017-04-30T08:05:51.213Z,4.86
2017-04-30T08:08:21.026Z,5.16
2017-04-30T08:10:50.800Z,5.80
2017-04-30T08:13:19.855Z,5.14
2017-04-30T08:15:48.913Z,4.84
2017-04-30T08:18:17.953Z,5.10
2017-04-30T08:20:46.985Z,4.62
2017-04-30T08:23:16.029Z,7.66
2017-04-30T08:25:45.073Z,5.72
2017-04-30T08:28:14.202Z,9.28
2017-04-30T08:30:44.102Z,5.86
2017-04-30T08:33:13.138Z,5.40
2017-04-30T08:35:42.195Z,4.72
2017-04-30T08:38:12.021Z,4.82
2017-04-30T08:40:41.934Z,4.48
2017-04-30T08:43:11.230Z,5.24
2017-04-30T08:45:41.035Z,4.78
2017-04-30T08:48:10.137Z,10.56
2017-04-30T08:50:39.940Z,12.44
2017-04-30T08:53:08.967Z,6.20
2017-04-30T08:55:38.058Z,4.72
2017-04-30T08:58:07.146Z,5.38
2017-04-30T09:00:36.956Z,3.92
2017-04-30T09:03:06.766Z,4.56
2017-04-30T09:05:36.560Z,4.20
2017-04-30T09:08:05.665Z,4.76
2017-04-30T09:10:35.466Z,4.32
2017-04-30T09:13:04.494Z,5.42
2017-04-30T09:15:33.541Z,5.50
2017-04-30T09:18:02.576Z,4.32
2017-04-30T09:20:32.389Z,4.72
2017-04-30T09:23:02.188Z,12.70
2017-04-30T09:25:32.523Z,9.72
2017-04-30T09:28:02.298Z,5.76
2017-04-30T09:30:31.357Z,4.44
2017-04-30T09:33:00.407Z,4.62
2017-04-30T09:35:29.434Z,4.48
2017-04-30T09:37:58.505Z,3.92
2017-04-30T09:40:27.536Z,4.64
2017-04-30T09:42:56.591Z,4.78
2017-04-30T09:45:25.626Z,5.26
2017-04-30T09:47:54.683Z,4.74
2017-04-30T09:50:23.794Z,5.50
2017-04-30T09:52:53.601Z,4.80
2017-04-30T09:55:23.420Z,4.68
2017-04-30T09:57:53.214Z,4.58
2017-04-30T10:00:22.245Z,3.70
2017-04-30T10:02:51.303Z,4.42
2017-04-30T10:05:20.329Z,4.50
2017-04-30T10:07:49.373Z,4.78
2017-04-30T10:10:18.498Z,5.14
2017-04-30T10:12:47.587Z,4.72
2017-04-30T10:15:16.617Z,4.82
2017-04-30T10:17:45.681Z,4.56
2017-04-30T10:20:15.474Z,4.06
2017-04-30T10:22:44.535Z,4.16
2017-04-30T10:25:13.596Z,4.14
2017-04-30T10:27:43.406Z,4.38
2017-04-30T10:30:13.189Z,6.76
2017-04-30T10:32:42.240Z,3.72
2017-04-30T10:35:11.289Z,4.50
2017-04-30T10:37:40.421Z,5.26
2017-04-30T10:40:09.465Z,4.92
2017-04-30T10:42:38.512Z,3.84
2017-04-30T10:45:07.590Z,4.32
2017-04-30T10:47:37.399Z,5.72
2017-04-30T10:50:07.198Z,4.68
2017-04-30T10:52:36.297Z,5.16
2017-04-30T10:55:06.117Z,5.68
2017-04-30T10:57:35.939Z,7.54
2017-04-30T11:00:05.835Z,5.52
2017-04-30T11:02:34.879Z,5.22
2017-04-30T11:05:04.043Z,5.75
2017-04-30T11:07:33.815Z,5.12
2017-04-30T11:10:02.950Z,5.35
2017-04-30T11:12:33.579Z,5.03
2017-04-30T11:15:03.394Z,4.86
2017-04-30T11:17:33.186Z,4.94
2017-04-30T11:20:02.307Z,5.36
2017-04-30T11:22:32.160Z,4.44
2017-04-30T11:25:01.189Z,5.00
2017-04-30T11:27:30.240Z,5.08
2017-04-30T11:29:59.273Z,6.08
2017-04-30T11:32:28.324Z,5.34
2017-04-30T11:34:57.361Z,4.98
2017-04-30T11:37:26.421Z,4.98
2017-04-30T11:39:55.481Z,5.42
2017-04-30T11:42:25.277Z,5.26
2017-04-30T11:44:54.386Z,4.26
2017-04-30T11:47:24.194Z,4.94
2017-04-30T11:49:53.999Z,4.54
2017-04-30T11:52:23.056Z,4.82
2017-04-30T11:54:52.189Z,4.60
2017-04-30T11:57:21.624Z,3.82
2017-04-30T11:59:50.673Z,4.48
2017-04-30T12:02:19.790Z,4.80
2017-04-30T12:04:49.597Z,5.32
2017-04-30T12:07:18.654Z,4.28
2017-04-30T12:09:47.799Z,4.80
2017-04-30T12:12:17.701Z,3.96
2017-04-30T12:14:46.830Z,3.54
2017-04-30T12:17:15.863Z,4.12
2017-04-30T12:19:44.918Z,5.28
2017-04-30T12:22:13.949Z,3.68
2017-04-30T12:24:42.996Z,3.90
2017-04-30T12:27:12.782Z,4.02
2017-04-30T12:29:41.901Z,3.56
2017-04-30T12:32:11.670Z,4.20
2017-04-30T12:34:40.731Z,3.68
2017-04-30T12:37:09.756Z,3.40
2017-04-30T12:39:38.819Z,3.10
2017-04-30T12:42:07.890Z,3.40
2017-04-30T12:44:37.013Z,3.62
2017-04-30T12:47:06.047Z,3.12
2017-04-30T12:49:35.187Z,3.36
2017-04-30T12:52:04.990Z,3.54
2017-04-30T12:54:34.901Z,3.46
2017-04-30T12:57:04.053Z,3.62
2017-04-30T12:59:33.115Z,3.48
2017-04-30T13:02:02.913Z,3.74
2017-04-30T13:04:32.733Z,3.10
2017-04-30T13:07:02.538Z,4.14
2017-04-30T13:09:32.366Z,3.70
2017-04-30T13:12:01.446Z,3.90
2017-04-30T13:14:31.352Z,3.58
2017-04-30T13:17:00.394Z,3.88
2017-04-30T13:19:29.461Z,4.20
2017-04-30T13:21:59.271Z,3.38
2017-04-30T13:24:29.072Z,4.02
2017-04-30T13:26:58.190Z,4.66
2017-04-30T13:29:27.991Z,3.94
2017-04-30T13:31:57.786Z,4.40
2017-04-30T13:34:26.898Z,4.48
2017-04-30T13:36:56.679Z,4.10
2017-04-30T13:39:25.807Z,4.48
2017-04-30T13:41:55.618Z,5.06
2017-04-30T13:44:25.431Z,4.92
2017-04-30T13:46:55.210Z,4.70
2017-04-30T13:49:24.336Z,5.12
2017-04-30T13:51:54.111Z,4.72
2017-04-30T13:54:23.242Z,4.42
2017-04-30T13:56:52.285Z,4.94
2017-04-30T13:59:21.428Z,4.16
2017-04-30T14:01:50.477Z,4.34
2017-04-30T14:04:19.504Z,5.00
2017-04-30T14:06:48.562Z,4.02
2017-04-30T14:09:17.709Z,3.52
2017-04-30T14:11:46.898Z,4.52
2017-04-30T14:14:16.014Z,4.22
2017-04-30T14:16:45.921Z,4.70
2017-04-30T14:19:14.954Z,3.94
2017-04-30T14:21:43.985Z,4.30
2017-04-30T14:24:13.045Z,5.40
2017-04-30T14:26:42.098Z,3.66
2017-04-30T14:29:11.159Z,4.10
2017-04-30T14:31:40.204Z,4.04
2017-04-30T14:34:10.003Z,3.20
2017-04-30T14:36:39.106Z,4.68
2017-04-30T14:39:08.910Z,4.54
2017-04-30T14:41:38.009Z,3.56
2017-04-30T14:44:07.109Z,3.56
2017-04-30T14:46:36.896Z,3.68
2017-04-30T14:49:05.931Z,3.98
2017-04-30T14:51:35.822Z,4.60
2017-04-30T14:54:04.857Z,4.60
2017-04-30T14:56:33.914Z,4.28
2017-04-30T14:59:03.027Z,5.20
2017-04-30T15:01:32.815Z,4.72
2017-04-30T15:04:01.857Z,5.52
2017-04-30T15:06:30.888Z,4.20
2017-04-30T15:09:00.014Z,4.80
2017-04-30T15:11:29.785Z,4.20
2017-04-30T15:13:58.847Z,4.38
2017-04-30T15:16:27.887Z,5.74
2017-04-30T15:18:56.967Z,5.56
2017-04-30T15:21:26.186Z,6.08
2017-04-30T15:24:00.604Z,5.40
2017-04-30T15:26:31.563Z,5.66
2017-04-30T15:29:00.678Z,5.78
2017-04-30T15:31:30.453Z,5.64
2017-04-30T15:34:00.265Z,5.62
2017-04-30T15:36:33.779Z,6.62
2017-04-30T15:39:02.893Z,6.42
2017-04-30T15:41:32.025Z,6.66
2017-04-30T15:44:01.097Z,5.88
2017-04-30T15:46:30.129Z,5.50
2017-04-30T15:49:01.527Z,6.86
2017-04-30T15:51:31.435Z,6.48
2017-04-30T15:54:00.453Z,6.50
2017-04-30T15:56:29.515Z,6.72
2017-04-30T15:58:58.634Z,7.34
2017-04-30T16:01:28.439Z,6.84
2017-04-30T16:03:57.543Z,7.26
2017-04-30T16:06:27.446Z,8.82
2017-04-30T16:08:56.503Z,8.26
2017-04-30T16:11:25.550Z,7.18
2017-04-30T16:13:55.470Z,8.44
2017-04-30T16:16:25.263Z,7.80
2017-04-30T16:18:54.370Z,7.04
2017-04-30T16:21:24.155Z,6.72
2017-04-30T16:23:53.368Z,7.64
2017-04-30T16:26:22.391Z,7.72
2017-04-30T16:28:51.443Z,9.52
2017-04-30T16:31:20.473Z,8.78
2017-04-30T16:33:49.525Z,7.88
2017-04-30T16:36:18.597Z,9.24
2017-04-30T16:38:47.745Z,7.76
2017-04-30T16:41:17.554Z,8.30
2017-04-30T16:43:46.600Z,9.30
2017-04-30T16:46:15.654Z,8.74
2017-04-30T16:48:45.522Z,8.56
2017-04-30T16:51:14.579Z,7.56
2017-04-30T16:53:43.662Z,8.68
2017-04-30T16:56:13.446Z,7.56
2017-04-30T16:58:42.573Z,7.10
2017-04-30T17:01:12.366Z,7.84
2017-04-30T17:03:41.481Z,7.22
2017-04-30T17:06:11.293Z,7.40
2017-04-30T17:08:41.101Z,7.22
2017-04-30T17:11:10.909Z,6.68
2017-04-30T17:13:40.735Z,7.34
2017-04-30T17:16:10.544Z,6.90
2017-04-30T17:18:40.348Z,7.26
2017-04-30T17:21:10.120Z,5.96
2017-04-30T17:23:39.170Z,6.26
2017-04-30T17:26:08.201Z,6.90
2017-04-30T17:28:37.261Z,7.46
2017-04-30T17:31:06.433Z,6.98
2017-04-30T17:33:35.450Z,6.32
2017-04-30T17:36:05.354Z,7.26
2017-04-30T17:38:35.162Z,7.02
2017-04-30T17:41:04.954Z,6.68
2017-04-30T17:43:33.993Z,7.38
2017-04-30T17:46:03.066Z,7.72
2017-04-30T17:48:32.878Z,9.14
2017-04-30T17:51:02.690Z,9.28
2017-04-30T17:53:32.497Z,8.24
2017-04-30T17:56:01.593Z,9.08
2017-04-30T17:58:30.698Z,10.42
2017-04-30T18:01:00.596Z,10.12
2017-04-30T18:03:29.701Z,10.36
2017-04-30T18:05:59.517Z,9.88
2017-04-30T18:08:28.614Z,10.54
2017-04-30T18:10:58.522Z,10.64
2017-04-30T18:13:27.600Z,9.30
2017-04-30T18:15:56.639Z,10.94
2017-04-30T18:18:25.697Z,11.12
2017-04-30T18:20:54.828Z,11.14
2017-04-30T18:23:24.744Z,10.72
2017-04-30T18:25:54.542Z,11.16
2017-04-30T18:28:24.350Z,11.12
2017-04-30T18:30:53.482Z,10.16
2017-04-30T18:33:22.556Z,9.92
2017-04-30T18:35:52.342Z,8.84
2017-04-30T18:38:21.458Z,9.98
2017-04-30T18:40:51.262Z,8.42
2017-04-30T18:43:20.294Z,8.54
2017-04-30T18:45:49.358Z,9.18
2017-04-30T18:48:18.499Z,9.08
2017-04-30T18:50:47.560Z,7.84
2017-04-30T18:53:17.456Z,8.56
2017-04-30T18:55:46.567Z,7.76
2017-04-30T18:58:16.343Z,7.42
2017-04-30T19:00:45.472Z,7.38
2017-04-30T19:03:15.254Z,10.40
2017-04-30T19:05:44.300Z,7.48
2017-04-30T19:08:13.372Z,7.70
2017-04-30T19:10:42.481Z,7.60
2017-04-30T19:13:12.383Z,7.80
2017-04-30T19:15:42.165Z,8.34
2017-04-30T19:18:11.214Z,7.98
2017-04-30T19:20:40.278Z,9.20
2017-04-30T19:23:09.336Z,8.58
2017-04-30T19:25:38.363Z,9.00
2017-04-30T19:28:07.470Z,8.50
2017-04-30T19:30:37.279Z,10.92
2017-04-30T19:33:06.374Z,8.30
2017-04-30T19:35:35.482Z,8.68
2017-04-30T19:38:04.493Z,7.76
2017-04-30T19:40:33.541Z,8.16
2017-04-30T19:43:02.655Z,9.44
2017-04-30T19:45:31.881Z,8.70
2017-04-30T19:48:01.049Z,8.32
2017-04-30T19:50:30.161Z,8.54
2017-04-30T19:52:59.938Z,15.94
2017-04-30T19:55:28.965Z,9.32
2017-04-30T19:57:58.778Z,8.26
2017-04-30T20:00:28.591Z,8.28
2017-04-30T20:02:57.632Z,9.48
2017-04-30T20:05:26.677Z,10.46
2017-04-30T20:07:56.465Z,9.72
2017-04-30T20:10:25.495Z,10.46
2017-04-30T20:12:55.283Z,11.20
2017-04-30T20:15:24.376Z,13.56
2017-04-30T20:17:53.426Z,16.60
2017-04-30T20:20:22.503Z,12.32
2017-04-30T20:22:51.573Z,12.98
2017-04-30T20:25:21.381Z,13.10
2017-04-30T20:27:51.211Z,13.40
2017-04-30T20:30:21.049Z,12.88
2017-04-30T20:32:50.106Z,16.32
2017-04-30T20:35:19.130Z,14.84
2017-04-30T20:37:48.181Z,14.46
2017-04-30T20:40:17.234Z,15.90
2017-04-30T20:42:46.275Z,16.48
2017-04-30T20:45:15.390Z,19.82
2017-04-30T20:47:45.211Z,14.34
2017-04-30T20:50:15.183Z,15.16
2017-04-30T20:52:44.230Z,15.18
2017-04-30T20:55:13.281Z,15.96
2017-04-30T20:57:42.323Z,16.00
2017-04-30T21:00:11.390Z,15.86
2017-04-30T21:02:41.191Z,16.26
2017-04-30T21:05:10.227Z,17.28
2017-04-30T21:07:39.303Z,15.64
2017-04-30T21:10:09.091Z,17.40
2017-04-30T21:12:38.145Z,17.70
2017-04-30T21:15:07.201Z,17.42
2017-04-30T21:17:37.001Z,17.36
2017-04-30T21:20:06.310Z,18.12
2017-04-30T21:22:35.412Z,18.20
2017-04-30T21:25:05.228Z,18.52
2017-04-30T21:27:35.039Z,18.86
2017-04-30T21:30:04.850Z,17.76
2017-04-30T21:32:34.657Z,18.68
2017-04-30T21:35:04.452Z,17.90
2017-04-30T21:37:33.572Z,16.34
2017-04-30T21:40:02.620Z,18.26
2017-04-30T21:42:31.666Z,16.72
2017-04-30T21:45:01.454Z,17.64
2017-04-30T21:47:30.501Z,16.94
2017-04-30T21:49:59.674Z,19.44
2017-04-30T21:52:29.453Z,18.34
2017-04-30T21:54:58.568Z,16.56
2017-04-30T21:57:28.388Z,17.70
2017-04-30T21:59:58.181Z,15.76
2017-04-30T22:02:27.241Z,16.34
2017-04-30T22:04:56.276Z,17.58
2017-04-30T22:07:25.403Z,17.24
2017-04-30T22:09:54.443Z,18.02
2017-04-30T22:12:23.508Z,16.86
2017-04-30T22:14:52.568Z,18.22
2017-04-30T22:17:21.622Z,16.72
2017-04-30T22:19:50.786Z,16.32
2017-04-30T22:22:20.997Z,17.30
2017-04-30T22:24:50.077Z,16.86
2017-04-30T22:27:19.908Z,15.02
2017-04-30T22:29:48.953Z,15.32
2017-04-30T22:32:18.134Z,16.42
2017-04-30T22:34:47.180Z,17.04
2017-04-30T22:37:16.990Z,16.00
2017-04-30T22:39:46.821Z,16.74
2017-04-30T22:42:15.878Z,17.32
2017-04-30T22:44:44.935Z,17.30
2017-04-30T22:47:13.982Z,19.58
2017-04-30T22:49:43.075Z,14.56
2017-04-30T22:52:12.110Z,14.86
2017-04-30T22:54:41.179Z,15.38
2017-04-30T22:57:10.999Z,16.10
2017-04-30T22:59:40.805Z,16.20
2017-04-30T23:02:10.627Z,15.80
2017-04-30T23:04:40.404Z,15.46
2017-04-30T23:07:09.532Z,13.80
2017-04-30T23:09:38.577Z,14.52
2017-04-30T23:12:07.726Z,14.08
2017-04-30T23:14:37.503Z,13.50
2017-04-30T23:17:06.571Z,14.88
2017-04-30T23:19:35.614Z,13.08
2017-04-30T23:22:05.423Z,14.60
2017-04-30T23:24:34.471Z,13.62
2017-04-30T23:27:03.558Z,14.26
2017-04-30T23:29:32.611Z,13.26
2017-04-30T23:32:02.397Z,13.22
2017-04-30T23:34:31.455Z,13.16
2017-04-30T23:37:00.513Z,13.52
2017-04-30T23:39:30.348Z,13.92
2017-04-30T23:41:59.392Z,12.58
2017-04-30T23:44:28.463Z,13.60
2017-04-30T23:46:57.516Z,12.84
2017-04-30T23:49:27.316Z,12.90
2017-04-30T23:51:56.556Z,13.74
2017-04-30T23:54:25.625Z,13.38
2017-04-30T23:56:55.402Z,12.76
2017-04-30T23:59:24.550Z,13.78
